createdAt,value
2023-03-25T00:02:14.910Z,4.73
2023-03-25T00:05:23.038Z,5.53
2023-03-25T00:08:28.035Z,4.63
2023-03-25T00:11:31.588Z,6.37
2023-03-25T00:14:35.097Z,4.97
2023-03-25T00:17:38.571Z,5.00
2023-03-25T00:20:45.837Z,5.40
2023-03-25T00:23:50.131Z,5.33
2023-03-25T00:26:54.283Z,5.23
2023-03-25T00:29:57.285Z,5.60
2023-03-25T00:33:01.777Z,5.10
2023-03-25T00:36:06.071Z,8.30
2023-03-25T00:39:11.363Z,7.30
2023-03-25T00:42:17.422Z,4.70
2023-03-25T00:45:22.584Z,5.37
2023-03-25T00:48:28.201Z,5.03
2023-03-25T00:51:33.767Z,4.83
2023-03-25T00:54:38.153Z,5.07
2023-03-25T00:57:41.474Z,4.60
2023-03-25T01:00:44.476Z,6.30
2023-03-25T01:03:48.856Z,5.30
2023-03-25T01:06:52.212Z,5.33
2023-03-25T01:09:58.498Z,5.13
2023-03-25T01:13:01.522Z,4.50
2023-03-25T01:16:08.340Z,4.17
2023-03-25T01:19:12.316Z,4.63
2023-03-25T01:22:15.375Z,4.43
2023-03-25T01:25:19.928Z,4.20
2023-03-25T01:28:23.107Z,4.60
2023-03-25T01:31:30.543Z,4.23
2023-03-25T01:34:38.364Z,4.80
2023-03-25T01:37:44.148Z,4.27
2023-03-25T01:40:48.757Z,4.60
2023-03-25T01:44:07.453Z,4.20
2023-03-25T01:47:10.505Z,4.13
2023-03-25T01:50:15.016Z,4.57
2023-03-25T01:53:18.955Z,4.90
2023-03-25T01:56:30.708Z,4.73
2023-03-25T01:59:34.117Z,4.03
2023-03-25T02:02:40.150Z,4.80
2023-03-25T02:05:51.017Z,4.40
2023-03-25T02:08:58.007Z,4.50
2023-03-25T02:12:02.293Z,4.03
2023-03-25T02:15:09.142Z,6.07
2023-03-25T02:18:43.739Z,4.17
2023-03-25T02:22:53.385Z,4.57
2023-03-25T02:26:23.639Z,5.57
2023-03-25T02:29:53.995Z,6.00
2023-03-25T02:33:24.267Z,7.00
2023-03-25T02:37:04.195Z,5.33
2023-03-25T02:40:15.838Z,5.13
2023-03-25T02:43:26.356Z,4.30
2023-03-25T02:46:31.276Z,5.40
2023-03-25T02:49:37.965Z,4.40
2023-03-25T02:52:45.875Z,4.70
2023-03-25T02:55:52.907Z,4.97
2023-03-25T02:58:58.185Z,4.93
2023-03-25T03:02:04.246Z,5.30
2023-03-25T03:05:24.527Z,5.03
2023-03-25T03:08:42.499Z,4.63
2023-03-25T03:12:01.538Z,5.87
2023-03-25T03:15:22.875Z,5.10
2023-03-25T03:18:42.337Z,5.37
2023-03-25T03:21:54.153Z,6.17
2023-03-25T03:25:03.352Z,4.40
2023-03-25T03:28:13.446Z,4.97
2023-03-25T03:31:48.479Z,4.90
2023-03-25T03:34:53.355Z,5.50
2023-03-25T03:38:00.695Z,4.83
2023-03-25T03:41:08.317Z,5.33
2023-03-25T03:44:17.284Z,5.03
2023-03-25T03:47:26.226Z,5.83
2023-03-25T03:50:32.883Z,5.67
2023-03-25T03:53:41.242Z,4.57
2023-03-25T03:56:47.443Z,4.97
2023-03-25T03:59:58.660Z,5.03
2023-03-25T04:03:06.337Z,4.63
2023-03-25T04:06:21.012Z,5.23
2023-03-25T04:09:28.718Z,5.33
2023-03-25T04:12:35.471Z,4.03
2023-03-25T04:15:39.993Z,4.63
2023-03-25T04:18:43.501Z,4.17
2023-03-25T04:21:48.121Z,4.27
2023-03-25T04:24:54.876Z,3.77
2023-03-25T04:27:59.095Z,3.80
2023-03-25T04:31:07.465Z,4.07
2023-03-25T04:34:11.552Z,3.83
2023-03-25T04:37:14.592Z,3.97
2023-03-25T04:40:18.756Z,4.70
2023-03-25T04:43:21.876Z,4.27
2023-03-25T04:46:26.852Z,4.93
2023-03-25T04:49:30.212Z,4.47
2023-03-25T04:52:34.509Z,4.00
2023-03-25T04:55:37.484Z,3.77
2023-03-25T04:58:42.211Z,6.00
2023-03-25T05:01:47.090Z,5.37
2023-03-25T05:04:51.222Z,6.33
2023-03-25T05:07:58.228Z,5.77
2023-03-25T05:11:01.522Z,4.50
2023-03-25T05:14:05.046Z,4.80
2023-03-25T05:17:09.273Z,6.10
2023-03-25T05:20:14.536Z,5.70
2023-03-25T05:23:18.655Z,3.70
2023-03-25T05:26:21.650Z,4.10
2023-03-25T05:29:25.632Z,3.80
2023-03-25T05:32:33.404Z,4.40
2023-03-25T05:35:37.434Z,4.57
2023-03-25T05:38:41.786Z,4.00
2023-03-25T05:41:45.764Z,4.27
2023-03-25T05:44:51.110Z,4.10
2023-03-25T05:47:55.463Z,3.87
2023-03-25T05:50:58.460Z,4.30
2023-03-25T05:54:06.995Z,3.80
2023-03-25T05:57:10.371Z,4.73
2023-03-25T06:00:19.887Z,3.33
2023-03-25T06:03:26.087Z,3.97
2023-03-25T06:06:29.745Z,3.17
2023-03-25T06:09:35.110Z,3.40
2023-03-25T06:12:42.173Z,3.80
2023-03-25T06:15:45.207Z,3.40
2023-03-25T06:18:56.595Z,3.60
2023-03-25T06:22:00.101Z,3.40
2023-03-25T06:25:03.950Z,4.50
2023-03-25T06:28:07.094Z,4.30
2023-03-25T06:31:14.306Z,6.20
2023-03-25T06:34:18.602Z,4.90
2023-03-25T06:37:22.005Z,3.73
2023-03-25T06:40:25.863Z,3.00
2023-03-25T06:43:28.925Z,2.97
2023-03-25T06:46:52.583Z,3.00
2023-03-25T06:50:22.608Z,2.73
2023-03-25T06:53:29.488Z,3.30
2023-03-25T06:56:33.008Z,4.03
2023-03-25T06:59:36.159Z,3.40
2023-03-25T07:02:39.212Z,5.40
2023-03-25T07:05:44.289Z,3.03
2023-03-25T07:08:49.438Z,3.70
2023-03-25T07:11:52.442Z,4.03
2023-03-25T07:14:57.386Z,2.80
2023-03-25T07:18:00.398Z,2.90
2023-03-25T07:21:08.837Z,3.40
2023-03-25T07:24:13.580Z,3.10
2023-03-25T07:27:16.828Z,2.70
2023-03-25T07:30:39.288Z,2.90
2023-03-25T07:33:42.392Z,3.50
2023-03-25T07:36:46.710Z,3.53
2023-03-25T07:39:52.584Z,3.07
2023-03-25T07:42:55.935Z,3.60
2023-03-25T07:46:10.430Z,3.23
2023-03-25T07:49:13.433Z,2.70
2023-03-25T07:52:26.849Z,3.30
2023-03-25T07:55:29.818Z,3.60
2023-03-25T07:58:32.817Z,3.50
2023-03-25T08:01:35.907Z,3.00
2023-03-25T08:04:39.051Z,3.43
2023-03-25T08:07:43.372Z,3.20
2023-03-25T08:10:47.314Z,2.73
2023-03-25T08:13:50.410Z,3.40
2023-03-25T08:16:53.387Z,2.87
2023-03-25T08:19:56.391Z,2.90
2023-03-25T08:23:02.836Z,2.73
2023-03-25T08:26:06.867Z,2.93
2023-03-25T08:29:10.090Z,3.10
2023-03-25T08:32:13.079Z,3.70
2023-03-25T08:35:16.144Z,2.60
2023-03-25T08:38:21.499Z,3.10
2023-03-25T08:41:25.357Z,3.17
2023-03-25T08:44:28.482Z,2.70
2023-03-25T08:47:31.605Z,2.90
2023-03-25T08:50:34.876Z,2.83
2023-03-25T08:53:39.205Z,2.30
2023-03-25T08:56:42.276Z,2.40
2023-03-25T08:59:45.491Z,2.37
2023-03-25T09:02:48.500Z,2.20
2023-03-25T09:05:51.759Z,1.90
2023-03-25T09:08:56.816Z,2.20
2023-03-25T09:11:59.807Z,2.43
2023-03-25T09:15:02.980Z,2.47
2023-03-25T09:18:06.923Z,2.50
2023-03-25T09:21:10.520Z,2.40
2023-03-25T09:24:14.849Z,2.90
2023-03-25T09:27:17.810Z,2.73
2023-03-25T09:30:20.864Z,3.30
2023-03-25T09:33:24.154Z,2.60
2023-03-25T09:36:28.274Z,2.57
2023-03-25T09:39:32.596Z,2.67
2023-03-25T09:42:59.704Z,2.97
2023-03-25T09:46:03.295Z,3.00
2023-03-25T09:49:15.498Z,3.33
2023-03-25T09:52:25.649Z,3.20
2023-03-25T09:55:34.063Z,3.40
2023-03-25T09:58:43.465Z,2.93
2023-03-25T10:01:56.405Z,3.27
2023-03-25T10:05:31.322Z,2.70
2023-03-25T10:08:48.184Z,2.43
2023-03-25T10:12:03.686Z,2.50
2023-03-25T10:15:22.606Z,2.27
2023-03-25T10:18:42.126Z,3.40
2023-03-25T10:21:54.781Z,2.60
2023-03-25T10:25:00.997Z,2.70
2023-03-25T10:28:08.944Z,2.50
2023-03-25T10:31:18.470Z,2.17
2023-03-25T10:34:31.163Z,2.50
2023-03-25T10:37:39.373Z,2.50
2023-03-25T10:40:49.917Z,2.07
2023-03-25T10:43:55.441Z,2.20
2023-03-25T10:47:03.772Z,2.23
2023-03-25T10:50:14.109Z,2.30
2023-03-25T10:53:24.550Z,2.33
2023-03-25T10:56:32.656Z,2.50
2023-03-25T10:59:43.386Z,2.43
2023-03-25T11:02:47.940Z,3.27
2023-03-25T11:05:52.844Z,2.17
2023-03-25T11:09:13.803Z,2.60
2023-03-25T11:12:30.154Z,2.50
2023-03-25T11:15:42.562Z,2.30
2023-03-25T11:18:45.910Z,2.60
2023-03-25T11:21:54.624Z,2.37
2023-03-25T11:25:04.517Z,2.13
2023-03-25T11:28:15.709Z,2.20
2023-03-25T11:31:25.559Z,2.00
2023-03-25T11:34:31.408Z,2.67
2023-03-25T11:37:44.879Z,2.50
2023-03-25T11:40:57.436Z,2.40
2023-03-25T11:44:01.057Z,2.00
2023-03-25T11:47:11.865Z,2.37
2023-03-25T11:50:23.629Z,2.30
2023-03-25T11:53:28.366Z,2.70
2023-03-25T11:56:37.043Z,2.30
2023-03-25T11:59:45.232Z,2.03
2023-03-25T12:03:00.154Z,2.20
2023-03-25T12:06:08.049Z,2.00
2023-03-25T12:09:12.990Z,1.83
2023-03-25T12:12:35.280Z,2.40
2023-03-25T12:15:45.541Z,2.10
2023-03-25T12:19:14.175Z,1.87
2023-03-25T12:22:30.500Z,2.33
2023-03-25T12:25:48.932Z,2.47
2023-03-25T12:29:21.444Z,2.00
2023-03-25T12:32:36.566Z,2.20
2023-03-25T12:35:47.512Z,2.17
2023-03-25T12:39:05.882Z,2.07
2023-03-25T12:42:25.327Z,2.40
2023-03-25T12:45:58.136Z,2.50
2023-03-25T12:49:17.981Z,1.67
2023-03-25T12:52:33.822Z,1.87
2023-03-25T12:55:56.796Z,2.20
2023-03-25T12:59:36.252Z,2.30
2023-03-25T13:03:12.542Z,2.20
2023-03-25T13:06:24.730Z,2.30
2023-03-25T13:09:35.058Z,2.33
2023-03-25T13:12:43.216Z,2.33
2023-03-25T13:15:50.021Z,2.60
2023-03-25T13:18:56.980Z,2.30
2023-03-25T13:22:06.269Z,2.30
2023-03-25T13:25:21.470Z,2.90
2023-03-25T13:28:30.287Z,2.00
2023-03-25T13:31:37.384Z,2.40
2023-03-25T13:34:45.637Z,2.43
2023-03-25T13:37:54.539Z,2.50
2023-03-25T13:41:12.855Z,2.83
2023-03-25T13:44:21.208Z,2.83
2023-03-25T13:47:37.484Z,2.50
2023-03-25T13:50:40.965Z,2.30
2023-03-25T13:53:49.830Z,3.57
2023-03-25T13:57:24.472Z,2.13
2023-03-25T14:01:10.884Z,2.87
2023-03-25T14:04:42.470Z,3.30
2023-03-25T14:08:33.772Z,2.47
2023-03-25T14:11:41.541Z,2.70
2023-03-25T14:14:50.319Z,2.90
2023-03-25T14:17:54.298Z,3.03
2023-03-25T14:20:59.171Z,5.73
2023-03-25T14:24:10.718Z,4.90
2023-03-25T14:27:24.908Z,3.70
2023-03-25T14:30:31.031Z,4.60
2023-03-25T14:34:16.879Z,2.43
2023-03-25T14:37:30.781Z,2.80
2023-03-25T14:44:18.099Z,2.67
2023-03-25T14:47:37.897Z,3.03
2023-03-25T14:50:41.190Z,2.97
2023-03-25T14:53:55.759Z,3.53
2023-03-25T14:57:07.156Z,2.97
2023-03-25T15:00:21.599Z,2.50
2023-03-25T15:03:36.965Z,2.30
2023-03-25T15:06:40.555Z,3.37
2023-03-25T15:09:52.077Z,2.20
2023-03-25T15:13:04.558Z,2.17
2023-03-25T15:16:19.876Z,2.03
2023-03-25T15:19:24.528Z,2.67
2023-03-25T15:22:27.612Z,2.27
2023-03-25T15:25:30.938Z,2.47
2023-03-25T15:28:59.750Z,2.50
2023-03-25T15:32:19.618Z,2.10
2023-03-25T15:35:38.088Z,2.23
2023-03-25T15:39:06.718Z,2.40
2023-03-25T15:42:43.815Z,2.20
2023-03-25T15:46:27.288Z,2.47
2023-03-25T15:49:52.434Z,3.00
2023-03-25T15:53:50.180Z,2.23
2023-03-25T15:56:57.409Z,4.07
2023-03-25T16:00:09.104Z,2.73
2023-03-25T16:03:16.785Z,3.30
2023-03-25T16:06:21.488Z,3.70
2023-03-25T16:09:29.391Z,2.90
2023-03-25T16:12:32.427Z,3.23
2023-03-25T16:15:37.750Z,2.93
2023-03-25T16:18:42.351Z,3.00
2023-03-25T16:21:49.680Z,3.07
2023-03-25T16:24:57.515Z,2.87
2023-03-25T16:28:04.777Z,3.37
2023-03-25T16:31:34.892Z,3.47
2023-03-25T16:34:42.030Z,4.67
2023-03-25T16:37:45.383Z,3.43
2023-03-25T16:40:49.802Z,3.40
2023-03-25T16:43:54.855Z,3.90
2023-03-25T16:47:01.344Z,3.70
2023-03-25T16:50:06.278Z,5.30
2023-03-25T16:53:11.930Z,3.33
2023-03-25T16:56:24.959Z,4.20
2023-03-25T16:59:31.350Z,3.50
2023-03-25T17:02:41.825Z,3.10
2023-03-25T17:06:01.318Z,3.20
2023-03-25T17:09:05.362Z,4.03
2023-03-25T17:12:11.815Z,3.87
2023-03-25T17:15:18.980Z,4.10
2023-03-25T17:18:28.789Z,3.73
2023-03-25T17:21:34.653Z,3.23
2023-03-25T17:24:43.751Z,4.30
2023-03-25T17:27:49.249Z,3.80
2023-03-25T17:30:52.720Z,4.07
2023-03-25T17:34:03.115Z,5.10
2023-03-25T17:37:08.347Z,4.73
2023-03-25T17:40:23.528Z,4.53
2023-03-25T17:43:28.690Z,5.40
2023-03-25T17:46:33.580Z,4.77
2023-03-25T17:49:37.986Z,4.87
2023-03-25T17:52:41.264Z,4.60
2023-03-25T17:55:44.455Z,4.97
2023-03-25T17:58:47.497Z,5.07
2023-03-25T18:01:51.159Z,4.63
2023-03-25T18:04:55.504Z,4.43
2023-03-25T18:08:00.039Z,5.10
2023-03-25T18:11:10.262Z,4.40
2023-03-25T18:14:13.295Z,4.50
2023-03-25T18:17:16.741Z,3.83
2023-03-25T18:20:30.684Z,4.77
2023-03-25T18:23:36.466Z,4.93
2023-03-25T18:26:43.825Z,4.27
2023-03-25T18:29:46.856Z,5.80
2023-03-25T18:32:50.685Z,4.73
2023-03-25T18:35:56.365Z,5.27
2023-03-25T18:39:04.699Z,6.00
2023-03-25T18:42:08.006Z,5.73
2023-03-25T18:45:12.194Z,5.17
2023-03-25T18:48:17.501Z,5.73
2023-03-25T18:51:22.423Z,5.13
2023-03-25T18:54:25.455Z,4.33
2023-03-25T18:57:29.831Z,4.87
2023-03-25T19:00:40.783Z,4.00
2023-03-25T19:03:43.972Z,3.70
2023-03-25T19:06:48.585Z,4.67
2023-03-25T19:09:53.632Z,3.70
2023-03-25T19:12:57.063Z,3.57
2023-03-25T19:16:00.337Z,4.23
2023-03-25T19:19:03.280Z,3.70
2023-03-25T19:22:09.751Z,4.70
2023-03-25T19:25:13.502Z,4.50
2023-03-25T19:28:20.458Z,4.03
2023-03-25T19:31:23.923Z,3.63
2023-03-25T19:34:27.038Z,4.13
2023-03-25T19:37:35.230Z,4.00
2023-03-25T19:40:39.056Z,3.57
2023-03-25T19:43:42.276Z,3.07
2023-03-25T19:46:45.358Z,3.00
2023-03-25T19:49:49.012Z,3.13
2023-03-25T19:52:54.864Z,2.93
2023-03-25T19:56:03.872Z,3.20
2023-03-25T19:59:06.995Z,2.70
2023-03-25T20:02:11.387Z,3.33
2023-03-25T20:05:21.485Z,3.83
2023-03-25T20:08:29.323Z,3.03
2023-03-25T20:11:33.321Z,2.87
2023-03-25T20:14:36.850Z,3.10
2023-03-25T20:17:40.531Z,3.30
2023-03-25T20:20:43.659Z,2.80
2023-03-25T20:23:48.044Z,3.20
2023-03-25T20:26:51.024Z,3.07
2023-03-25T20:29:54.325Z,3.33
2023-03-25T20:32:58.117Z,3.50
2023-03-25T20:36:01.205Z,3.53
2023-03-25T20:39:06.556Z,3.33
2023-03-25T20:42:10.072Z,3.30
2023-03-25T20:45:16.263Z,3.67
2023-03-25T20:48:19.525Z,3.73
2023-03-25T20:51:24.085Z,3.57
2023-03-25T20:54:28.841Z,2.70
2023-03-25T20:57:31.841Z,3.00
2023-03-25T21:00:35.133Z,3.70
2023-03-25T21:03:38.179Z,3.47
2023-03-25T21:06:41.979Z,3.50
2023-03-25T21:09:47.283Z,3.27
2023-03-25T21:12:50.958Z,3.13
2023-03-25T21:15:55.557Z,4.10
2023-03-25T21:19:01.854Z,3.03
2023-03-25T21:22:05.056Z,4.53
2023-03-25T21:25:09.772Z,3.70
2023-03-25T21:28:13.651Z,4.93
2023-03-25T21:31:21.686Z,3.57
2023-03-25T21:34:25.137Z,3.30
2023-03-25T21:37:35.611Z,2.70
2023-03-25T21:40:40.349Z,3.50
2023-03-25T21:43:44.211Z,3.83
2023-03-25T21:46:47.200Z,3.53
2023-03-25T21:49:50.407Z,3.97
2023-03-25T21:52:53.406Z,3.30
2023-03-25T21:56:04.185Z,3.80
2023-03-25T21:59:07.204Z,3.80
2023-03-25T22:02:14.237Z,3.80
2023-03-25T22:05:18.213Z,4.07
2023-03-25T22:08:21.147Z,3.30
2023-03-25T22:11:29.492Z,4.07
2023-03-25T22:14:32.761Z,3.77
2023-03-25T22:17:35.813Z,3.27
2023-03-25T22:20:38.859Z,3.77
2023-03-25T22:23:45.621Z,3.30
2023-03-25T22:26:50.079Z,3.87
2023-03-25T22:29:53.210Z,4.23
2023-03-25T22:32:56.147Z,4.43
2023-03-25T22:36:06.676Z,4.30
2023-03-25T22:39:10.642Z,3.70
2023-03-25T22:42:15.050Z,4.13
2023-03-25T22:45:18.562Z,3.87
2023-03-25T22:48:21.630Z,3.63
2023-03-25T22:51:26.903Z,4.20
2023-03-25T22:54:29.956Z,3.40
2023-03-25T22:57:34.619Z,4.47
2023-03-25T23:00:37.582Z,4.83
2023-03-25T23:03:41.232Z,5.83
2023-03-25T23:06:51.169Z,5.77
2023-03-25T23:10:00.888Z,5.80
2023-03-25T23:13:05.142Z,4.97
2023-03-25T23:16:10.813Z,5.63
2023-03-25T23:19:13.875Z,4.93
2023-03-25T23:22:17.793Z,5.00
2023-03-25T23:25:20.928Z,5.43
2023-03-25T23:28:26.712Z,5.40
2023-03-25T23:31:33.834Z,5.00
2023-03-25T23:34:38.337Z,4.93
2023-03-25T23:37:41.586Z,4.40
2023-03-25T23:40:44.682Z,5.70
2023-03-25T23:43:49.616Z,6.40
2023-03-25T23:46:52.615Z,5.33
2023-03-25T23:49:57.849Z,4.97
2023-03-25T23:53:01.654Z,4.47
2023-03-25T23:56:06.386Z,4.63
2023-03-25T23:59:11.739Z,4.90
